Member area
Imprimable
Estaimpuis, 22/09/2019, BEL - Marathon Estaimpuis
List of reports > SEMI 21KM - Result
Search: Page: [1]
413 Entries
 
Complains are not accepted anymore. Results are final.
Category
PosNrNameAgeNATLeagueTeamRealTimeTkmMoy.PlaceNamePTSCity
1.1384ABOUSITRE Ahmed36FRAJOGLEERS1:19:261:19:263:46 15.941senLEERSTéléchargez votre diplome!
2.1134DUCHENE Laurent41FRA1:20:261:20:263:49 15.741ve1ESTAIMBOURGTéléchargez votre diplome!
3.1284DESASY ThomasFRAFJC FLEURBAIX1:20:301:20:303:49 15.731xxxESTAIRESTéléchargez votre diplome!
4.1271GRIMONPREZ Julien32BEL1:21:371:21:373:53 15.512senMONSTéléchargez votre diplome!
5.1469RUDZKI FabriceFRA1:22:551:22:553:56 15.272xxxESTAIRESTéléchargez votre diplome!
6.1390DAMAY Thomas35FRA1:25:151:25:154:03 14.853senVILLENEUVE D'ASCQTéléchargez votre diplome!
7.1138CHEVALIER Fabian37BELRUNNING CLUB ME1:27:371:27:374:10 14.454senBIOULTéléchargez votre diplome!
8.1493DERUETTE Thomas24BEL1:27:421:27:454:10 14.435senARLONTéléchargez votre diplome!
9.1309SENECHAL Fabin40FRAOWENS 361:27:531:27:544:10 14.402ve1LYS LEZ LANNOYTéléchargez votre diplome!
10.1509DECOCQ Jacques-Antoine36FRAETM1:28:121:28:134:11 14.356senDOTTIGNIESTéléchargez votre diplome!
11.1253DAHO Benhamel51FRA1:28:281:28:284:12 14.311ve2EVREGNIESTéléchargez votre diplome!
12.1205DELANNOY Ludovic41FRA1:28:321:28:334:12 14.303ve1SAILLY LEZ LANNOYTéléchargez votre diplome!
13.1303LEROY Rémy26FRAETM1:28:461:28:464:13 14.267senWATTRELOSTéléchargez votre diplome!
14.1349MALRAIT Gerry49BELADDM OGY1:28:471:28:474:13 14.264ve1SAINT SAUVEURTéléchargez votre diplome!
15.1380NORMAND Richard44FRAALC VIEUX CONDE1:30:541:30:544:19 13.935ve1AMIENSTéléchargez votre diplome!
16.1068ADELE-DIT-RENSEVILLE Vincent40FRALILLE TRIATHLON1:31:441:31:454:21 13.806ve1SEQUEDINTéléchargez votre diplome!
17.1067BALBO Livio28BELET ENGHIEN1:32:441:32:444:24 13.658senHOUDENG-AIMERIESTéléchargez votre diplome!
18.1006VERCRUYSSE Thibaut27FRA1:32:501:32:504:24 13.649senLILLETéléchargez votre diplome!
19.1348GUSTIN Jeff21BELRC ESTAIMPUIS1:33:391:33:414:27 13.5110senESTAIMPIISTéléchargez votre diplome!
20.1477UNG Alexis36FRA1:33:451:33:464:27 13.5011senLESQUINTéléchargez votre diplome!
21.1088CHRISTOPHE Van De Putte42BELRCE1:33:501:33:514:27 13.497ve1ESTAIMPUISTéléchargez votre diplome!
22.1018DRALI Nasser59FRAUS TOURCOING1:34:351:34:354:29 13.392ve2WATTRELOSTéléchargez votre diplome!
23.1213LEFEBVRE Tony46FRA1:35:291:35:324:32 13.258ve1HAUBOURDINTéléchargez votre diplome!
24.1467VILLANI Antonio40BEL1:36:511:36:524:36 13.079ve1WARQUOINTéléchargez votre diplome!
25.1277GRULOIS Samuël41BELJUDO TOP NIVEAU1:36:581:36:594:36 13.0510ve1VELAINESTéléchargez votre diplome!
26.1059MARECAUX Laurent46FRA1:36:551:37:044:36 13.0411ve1CROIXTéléchargez votre diplome!
27.1506WAELKENS Benjamin35BEL1:37:011:37:044:36 13.0412senTEMPLEUVETéléchargez votre diplome!
28.1289JULY-DENIS Michael42BELBIN1:37:071:37:074:37 13.0412ve1TOURNAITéléchargez votre diplome!
29.1152MERCELIS Anton28BEL1:37:211:37:234:37 13.0013senDEURNETéléchargez votre diplome!
30.1282HAUTECOEUR Stephane47FRACG HAUBOURDIN1:38:051:38:054:39 12.9113ve1EMMERINTéléchargez votre diplome!
31.1514NR 1514 BEL1:38:031:38:104:40 12.903xxxTéléchargez votre diplome!
32.1032TIGROUDJA MezianeFRACG HAUBOURDIN1:38:161:38:164:40 12.884xxxSANTESTéléchargez votre diplome!
33.1195DEWAELLE Michel50BELRCE1:38:291:38:304:41 12.853ve2NÉCHINTéléchargez votre diplome!
34.1036OLIVIER Ludovic27FRA1:39:041:39:134:43 12.7614senCOMINESTéléchargez votre diplome!
35.1257BAEDEWYNS Lionel43BEL1:39:121:39:164:43 12.7514ve1HOVESTéléchargez votre diplome!
36.1016MASSON Franck52FRAEIFFAGE CLEVIA1:39:221:39:224:43 12.744ve2TOURCOINGTéléchargez votre diplome!
37.1165DECOCK Michel66BELRC ESTAIMPUIS1:39:391:39:464:44 12.691ve3ESTAIMPUISTéléchargez votre diplome!
38.1170FDEPLANQUES Laurence50FRACLUB DE LUIGNE1:40:041:40:044:45 12.651ai2MOUSCRONTéléchargez votre diplome!
39.1520VANDENBROUCKE Gino56BEL1:40:041:40:044:45 12.655ve2LUIGNESTéléchargez votre diplome!
40.1223DELHONTE Mathéo17BELDELHONTE GROUP1:40:171:40:224:46 12.611espHERSEAUXTéléchargez votre diplome!
41.1296PIRON Gilles36BELRUNNING-SAFE1:40:311:40:404:47 12.5815senESTAIMPUISTéléchargez votre diplome!
42.1140CRETELEINE Roland58BELRUNNING CLUB ME1:41:201:41:204:49 12.496ve2METTETTéléchargez votre diplome!
43.1008BROUSSE Jerome46FRARC ESTAIMPUIS1:41:281:41:304:49 12.4715ve1WATTRELOSTéléchargez votre diplome!
44.1142MARTORIATI Alain44FRA1:41:531:41:574:50 12.4216ve1PRÉMESQUESTéléchargez votre diplome!
45.1287MACAIRE Ludo54FRA1:41:541:42:004:51 12.417ve2LEERS NORDTéléchargez votre diplome!
46.1518SOUDAN Yoann41BEL1:42:151:42:184:51 12.3817ve1BLATONTéléchargez votre diplome!
47.1097FDAVENNE TamaraBEL1:42:221:42:224:52 12.375xxxWAVRETéléchargez votre diplome!
48.1306VAN STAEN David48FRAAS LFB1:42:231:42:234:52 12.3718ve1VILLENEUVE D'ASCQTéléchargez votre diplome!
49.1339COLLIE David48BEL1:42:511:42:594:53 12.2919ve1ESTAIMBOURGTéléchargez votre diplome!
50.1325RUSSE Damien39BEL1:43:001:43:054:54 12.2816senMOUSCRONTéléchargez votre diplome!
51.1489ROUINSARD Pierre32FRA1:43:201:43:204:54 12.2517senRENNESTéléchargez votre diplome!
52.1127YSENBAERT Jonathan32BEL1:43:301:43:394:55 12.2218senDOTTIGNIESTéléchargez votre diplome!
53.1519SOUDAN Hugo17BEL1:43:491:43:524:56 12.192espANNOEULLINTéléchargez votre diplome!
54.1383ROUSSEL David39FRA1:43:511:44:044:56 12.1719senFAMPOUXTéléchargez votre diplome!
55.1425LONCKE Frederic44BEL1:44:041:44:134:57 12.1520ve1MOUSCRONTéléchargez votre diplome!
56.1482FVAN LIEFFERINGE Aurore38BEL1:44:331:44:344:58 12.111damLLNTéléchargez votre diplome!
57.1481GILLET Nicolas43BEL1:44:331:44:354:58 12.1121ve1LLNTéléchargez votre diplome!
58.1143VAN HERREWEGHE Steven46BEL1:44:321:44:404:58 12.1022ve1SPIERETéléchargez votre diplome!
59.1473VANHOUTTE Geoffrey36BEL1:45:271:45:305:00 12.0020senTéléchargez votre diplome!
60.1011DERREVEAUX Christophe41FRA1:45:301:45:345:01 11.9923ve1LEERSTéléchargez votre diplome!
61.1387MAZARI Amar49FRAJOGLEERS1:45:381:45:435:01 11.9824ve1LEERSTéléchargez votre diplome!
62.1079TACK Bernard43BELETM1:46:031:46:035:02 11.9425ve1DOTTIGNIESTéléchargez votre diplome!
63.1139CORYN Stephane49BEL1:46:071:46:155:03 11.9226ve1ESTAIMPUISTéléchargez votre diplome!
64.1401FHUBERT Annabel48BELRUNNINGCLUBMETT1:46:171:46:195:03 11.911ai1DENÉETéléchargez votre diplome!
65.1182VANDENBULCKE Arnaud44FRARCE1:46:341:46:395:04 11.8727ve1LEERS NORDTéléchargez votre diplome!
66.1231FDUMORTIER Véronique42BELETM1:46:431:46:445:04 11.862ai1HERSEAUXTéléchargez votre diplome!
67.1347FLECHANTRE Sylvette49BELRCE ESTAIMPUIS1:46:421:46:485:04 11.853ai1KAINTéléchargez votre diplome!
68.1212BLANQUART Matthieu32FRA1:46:561:46:585:05 11.8421senBAISIEUXTéléchargez votre diplome!
69.1216PHILIPPOT Jimmy32FRA1:46:381:46:595:05 11.8322senESTAIMPUISTéléchargez votre diplome!
70.1159FDEVAERE Marine33BEL1:46:541:47:005:05 11.832damORROIRTéléchargez votre diplome!
71.1500BERISHA Ibrahim56BEL1:47:391:47:395:07 11.768ve2ESTAIMPUISTéléchargez votre diplome!
72.1132FVANDE WEGHE Jean-Luc43BELCAP BEAUTY FORM1:47:421:47:425:07 11.764ai1MOUSCRONTéléchargez votre diplome!
73.1024COSTA Guillaume33FRA1:47:421:47:425:07 11.7523senMOUVAUXTéléchargez votre diplome!
74.1145GORRIQUER Vincent34BEL1:47:401:47:475:07 11.7524senESTAIMPUISTéléchargez votre diplome!
75.1144BOSSUT Chris35BELCAP TEAM1:47:401:47:485:07 11.7525senESTAIMPUISTéléchargez votre diplome!
76.1414CREMER Joel47BEL1:48:101:48:155:08 11.7028ve1ALSEMBERGTéléchargez votre diplome!
77.1411DE ALMEIDA Carlos51FRA1:48:211:48:245:09 11.689ve2AUCHY LEZ ORCHIESTéléchargez votre diplome!
78.1490MARTIN François40BELSANS1:48:251:48:315:09 11.6729ve1RUMILLIESTéléchargez votre diplome!
79.1058FJOULIN Eloïse16FRA1:48:491:48:505:10 11.631esfLEERSTéléchargez votre diplome!
80.1503HESPEL David32BELFORMYFIT1:48:501:48:545:10 11.6326senESTAIMPUISTéléchargez votre diplome!
81.1020NOULLEZ Sebastien43FRA1:48:541:49:015:10 11.6130ve1OSTRICOURTTéléchargez votre diplome!
82.1480CALLEWAERT Léo17BEL1:49:071:49:085:11 11.603espMOUSCRONTéléchargez votre diplome!
83.1141FBOCKLANT Aurélie38BEL1:49:021:49:115:11 11.603damDOTTIGNIESTéléchargez votre diplome!
84.1061FDUVEILLIER Amélie45BELRCE1:49:091:49:155:11 11.595ai1ESTAIMBOURGTéléchargez votre diplome!
85.1399MASSAUX Florian31FRA1:49:501:49:505:13 11.5327senHEMTéléchargez votre diplome!
86.1073HERMAN Charles29FRA1:49:421:49:535:13 11.5228senVILLENEUVE D ASCQTéléchargez votre diplome!
87.1329DELFORGE Sébastien38BEL1:50:041:50:045:13 11.5029senTERTRETéléchargez votre diplome!
88.1495HENUSET Steve32BEL1:50:171:50:175:14 11.4830senMETTETTéléchargez votre diplome!
89.1005FPIERRE Ophélie23BEL1:50:171:50:215:14 11.474damMOENTéléchargez votre diplome!
90.1332MELE Romain30FRA1:50:211:50:415:15 11.4431senWARCOINGTéléchargez votre diplome!
91.1246THIBAUT Igor41FRAATHLE CLUB ACHI1:50:211:50:425:15 11.4431ve1BULLECOURTTéléchargez votre diplome!
92.1160FCHARTRER Alexis48FRA1:51:191:51:195:17 11.376ai1WATTRELOSTéléchargez votre diplome!
93.1471HAROUNE Ali57BEL1:51:291:51:335:18 11.3510ve2WATTRELOSTéléchargez votre diplome!
94.1199CERCUS Nicolas48FRATEAM OWENS361:51:221:51:355:18 11.3532ve1VILLENEUVE D’ASCQTéléchargez votre diplome!
95.1155FSCHLOSSMACHER Sandra39BELACBB1:51:421:51:455:18 11.335damWIERSTéléchargez votre diplome!
96.1051MOENS Frederic40BEL1:51:391:51:595:19 11.3133ve1ZAVENTEMTéléchargez votre diplome!
97.1224TRUYE Dorothée42BELDELHONTE GROUP1:51:531:51:595:19 11.3134ve1HERSEAUXTéléchargez votre diplome!
98.1104FDUPONT Jessica39FRA1:51:531:52:035:19 11.306damHERSEAUXTéléchargez votre diplome!
99.1508DE CONINCK GaspardBELRCE1:51:561:52:055:19 11.306xxxESTAIMBOURGTéléchargez votre diplome!
100.1229LIEVIN David34BELAUCUN1:51:531:52:065:19 11.2932senPIPAIXTéléchargez votre diplome!
101.1403FCARLIER-ANSSEAU Stephanie45FRA1:51:571:52:115:19 11.297ai1LA LONGUEVILLETéléchargez votre diplome!
102.1363BELLET Maximilien24FRA1:52:011:52:195:20 11.2733senTOURCOINGTéléchargez votre diplome!
103.1334FTRICQUET Sixtine21BEL1:52:181:52:195:20 11.277damWARCOINGTéléchargez votre diplome!
104.1333TRICQUET Dominique52BEL1:52:181:52:205:20 11.2711ve2WARCOINGTéléchargez votre diplome!
105.1019PLE Aymeric19FRA1:52:231:52:425:21 11.2334senWATTRELOSTéléchargez votre diplome!
106.1207GOSSELIN Thierry53FRA1:52:331:52:465:21 11.2312ve2NECHINTéléchargez votre diplome!
107.1186WALCARIUS Philippe45BEL1:53:021:53:145:22 11.1835ve1LEERS-NORDTéléchargez votre diplome!
108.1153FBOBOC Marie34BEL1:53:171:53:295:23 11.168damKONTICHTéléchargez votre diplome!
109.1150FBARROS Yolanda29BEL1:53:221:53:355:23 11.159damESTAIMPUISTéléchargez votre diplome!
110.1337FNAESSENS Nathalie52BELRCE1:53:311:53:375:24 11.142ai2ESTAIMPUISTéléchargez votre diplome!
111.1230MESTDAGH Pascal53BELRC ESTAIMPUIS1:53:311:53:375:24 11.1413ve2ESTAIMPUISTéléchargez votre diplome!
112.1066BAUTS Yves66BELRC ESTAIMPUIS1:53:301:53:385:24 11.142ve3PECQTéléchargez votre diplome!
113.1352CHARTRER Francis52FRA1:53:421:53:425:24 11.1414ve2SAILLY SUR LA LYSTéléchargez votre diplome!
114.1424LEMAITRE Michel54BELJC HÉRINNES1:53:431:53:455:24 11.1315ve2HÉRINNESTéléchargez votre diplome!
115.1151DIAMBAKA Garcia29BEL1:53:491:53:495:24 11.1235senESTAIMPUISTéléchargez votre diplome!
116.1265SANSONE Gaetan31FRAGUITE1:53:541:53:545:24 11.1236senLINSELLESTéléchargez votre diplome!
117.1278SCHILS Bruno42BELA.C.B.B.1:53:531:53:555:24 11.1136ve1PÉRUWELZTéléchargez votre diplome!
118.1313FDESMET Ophelie36BEL1:54:091:54:095:25 11.0910damMOUSCRONTéléchargez votre diplome!
119.1371FLORISOONE ThomasFRA1:54:121:54:155:25 11.087xxxLEERSTéléchargez votre diplome!
120.1226SAMPER Laurent40BELETC1:54:241:54:245:26 11.0737ve1MESLIN-L’EVÊQUETéléchargez votre diplome!
121.1324DUPONCHEEL Jean Claude51FRARC ESTAIMPUIS1:54:181:54:255:26 11.0716ve2ESTAIMPUISTéléchargez votre diplome!
122.1517CALOONE Mathieu29BEL1:54:401:54:445:27 11.0437senTéléchargez votre diplome!
123.1486CHEMIN Benoit43FRA1:54:591:55:105:28 10.9938ve1DROCOURTTéléchargez votre diplome!
124.1408BATAILLE Claude70BELRC ESTAIMPUIS1:55:051:55:135:28 10.991ve4TOURNAITéléchargez votre diplome!
125.1472FBOURGHELLE Hèlene22BEL1:55:131:55:155:28 10.9811damBLATONTéléchargez votre diplome!
126.1374IMPENS Bernard45FRAHEM ATHLÉTIQUE 1:55:151:55:175:28 10.9839ve1WATTRELOSTéléchargez votre diplome!
127.1098SANDERS Theo33GBR1:55:081:55:265:29 10.9738senWAVRETéléchargez votre diplome!
128.1001DENDOOVEN Philippe62FRA1:55:301:55:365:29 10.953ve3LEERSTéléchargez votre diplome!
129.1175QUINTARD Thibault38FRA1:55:281:55:465:30 10.9439senROUBAIXTéléchargez votre diplome!
130.1297FWINCKELS Florence32FRAW1:55:461:55:465:30 10.9412damESTAIMBOURGTéléchargez votre diplome!
131.1328FDETOURNAY Caroline34BEL1:55:311:55:475:30 10.9413damDOTTIGNIESTéléchargez votre diplome!
132.1483FHEBBINCKUYS Louise27FRA1:55:481:55:485:30 10.9314damESTAIMPUISTéléchargez votre diplome!
133.1412VERWAERDE Olivier44FRA1:55:501:55:575:30 10.9240ve1ESTAIMPUISTéléchargez votre diplome!
134.1487BRAND Sebastien41FRA1:55:531:56:005:30 10.9141ve1ESTAIMPUISTéléchargez votre diplome!
135.1299DEMEESTER Nicolas37FRA1:56:031:56:135:31 10.8940senNEUVILLE EN FERRAINTéléchargez votre diplome!
136.1185FAMELOOT Kathleen41BEL1:56:201:56:325:32 10.878ai1LEERS-NORDTéléchargez votre diplome!
137.1222DELHONTE Geoffrey46BELDELHONTE GROUP1:56:261:56:325:32 10.8642ve1HERSEAUXTéléchargez votre diplome!
138.1108BOITTE Cedric43BELMMM1:56:461:56:465:33 10.8443ve1MOUSCRONTéléchargez votre diplome!
139.1109MENART Simon37FRA1:56:361:56:485:33 10.8441senTOURCOINGTéléchargez votre diplome!
140.1499DESMYTER Johan33BEL1:56:511:56:555:33 10.8342senNEDER OVER HEEMBEEKTéléchargez votre diplome!
141.1187JEUNIAUX Julien35BEL1:56:511:56:555:33 10.8343senWASMES-AUDEMEZ-BRIFFOEILTéléchargez votre diplome!
142.1409FMESSINA Nathalie43BEL1:57:201:57:215:34 10.799ai1LEVAL TRAHEGNIESTéléchargez votre diplome!
143.1375MULLIER Pierre-Emmanuel41BEL1:57:011:57:225:34 10.7944ve1FROYENNESTéléchargez votre diplome!
144.1510FREYTEL Jerome47FRAOXYGÈNE SEQUEDI1:57:271:57:285:34 10.7845ve1SEQUEDINTéléchargez votre diplome!
145.1366MORTIER Florian24FRA1:57:221:57:325:35 10.7744senWILLEMSTéléchargez votre diplome!
146.1017DUTHOIT LaurentFRAAUCUN1:57:231:57:335:35 10.778xxxBAISIEUXTéléchargez votre diplome!
147.1245FOUQUET Fabien40FRALES GRENADINES1:57:281:57:355:35 10.7746ve1LEERSTéléchargez votre diplome!
148.1118FVOJKOVICS Tímea44HUN1:57:341:57:435:35 10.7510ai1UCCLETéléchargez votre diplome!
149.1513VAN MALLEGHEM Bernard55BEL1:57:451:57:455:35 10.7517ve2PÉRUWELZTéléchargez votre diplome!
150.1361VERHAEGH Dimitri38BELRC ESTAIMPUIS1:57:381:57:505:36 10.7445senESTAIMPUISTéléchargez votre diplome!
151.1093DUMORTIER Johan45BEL1:57:491:57:525:36 10.7447ve1RUMILLIESTéléchargez votre diplome!
152.1232VINCENT Decroix32FRA1:57:471:57:525:36 10.7446senMOUSCRONTéléchargez votre diplome!
153.1133BRABANT Jérémy35BEL1:57:541:58:015:36 10.7347senESTAIMBOURGTéléchargez votre diplome!
154.1233GEST Laurent46FRARUN IN BOUSBECQ1:57:541:58:065:36 10.7248ve1BOUSBECQUETéléchargez votre diplome!
155.1501DOUTRELIGNE Thomas33FRATEAM RANEF1:58:361:58:425:38 10.6748senTOURCOINGTéléchargez votre diplome!
156.1045FMARTINEZ Nathalie40FRALOUVROILREMISEE1:58:251:58:445:38 10.6611ai1MAUBEUGETéléchargez votre diplome!
157.1286DEPOORTER Olivier47FRARUN IN BOUSBECQ1:58:471:58:535:39 10.6549ve1HALLUINTéléchargez votre diplome!
158.1312GEERS Jerome34BEL1:58:401:58:585:39 10.6449senANTOINGTéléchargez votre diplome!
159.1410MADAU Luc49FRAFER1:59:071:59:095:39 10.6350ve1ROUBAIXTéléchargez votre diplome!
160.1215FONTAINE WendyBELZSWAPI1:58:571:59:165:40 10.629xxxLEERS-NORDTéléchargez votre diplome!
161.1291FJOYE Cyrielle18BELJCPMF ESTAIMPUI1:59:191:59:335:40 10.5915damLEERS-NORDTéléchargez votre diplome!
162.1292JOYE Régis51BELJCPMF ESTAIMPUI1:59:181:59:335:40 10.5918ve2LEERS-NORDTéléchargez votre diplome!
163.1171LECLERCQ Anthony34BELRC ESTAIMPUIS1:59:381:59:455:41 10.5750senTEMPLEUVETéléchargez votre diplome!
164.1131LECOMPTE Reynald53BEL1:59:381:59:475:41 10.5719ve2LUINGNETéléchargez votre diplome!
165.1300BONNEL Arnaud49BEL2:00:102:00:125:42 10.5351ve1BAILLEULTéléchargez votre diplome!
166.1015MOUADA Mehdi31FRART2:00:062:00:205:43 10.5251senNEUVILLE-EN-FERRAINTéléchargez votre diplome!
167.1421FDESMONT Catherine47BEL2:00:152:00:235:43 10.5212ai1LEUZE-EN-HAINAUTTéléchargez votre diplome!
168.1307CATTEAU Vincent54FRAR C E2:00:302:00:395:44 10.4920ve2ESTAIMPUISTéléchargez votre diplome!
169.1086FVANDENBULKE Mélanie35BEL2:00:372:00:395:44 10.4916damHELCHINTéléchargez votre diplome!
170.1381FRUCHART Sébastien33FRA2:00:442:00:535:44 10.4752senESPLECHINTéléchargez votre diplome!
170.1382FVANSTEELANDT Nadège28FRA2:00:432:00:535:44 10.4717damESPLECHINTéléchargez votre diplome!
172.1082VANNOTEGHEM FabienBELJCL2:00:472:00:535:44 10.4710xxxHERSEAUXTéléchargez votre diplome!
173.1101HINNEKENS Guillaume41BEL2:00:482:01:035:45 10.4652ve1TOURNAITéléchargez votre diplome!
174.1193LANNOY Maxime30BEL2:01:142:01:155:45 10.4453senSCHALTINTéléchargez votre diplome!
175.1072FMOYAERTS Nathalie29BELETENGHIEN2:01:362:01:445:47 10.4018damWAREMMETéléchargez votre diplome!
176.1491VIRGONE Leonardo45BEL2:01:412:01:445:47 10.4053ve1LUINGNETéléchargez votre diplome!
177.1280FVAN DEYNZE Lauranne43BEL2:01:422:01:455:47 10.4013ai1VEZONTéléchargez votre diplome!
178.1420FDERIDDER Anne-Lise31BELETENGHIEN2:01:372:01:455:47 10.4019damPETIT-ENGHIENTéléchargez votre diplome!
179.1044CREACH Pierre66FRA2:01:442:01:525:47 10.394ve3LA CHAPELLE SUR ERDRETéléchargez votre diplome!
180.1027VAUTRIN Guy69FRA2:01:442:01:525:47 10.395ve3LA CHAPELLE SUR ERDRETéléchargez votre diplome!
181.1249FBOUCAU Celine40FRAJCPMF2:01:432:01:555:47 10.3814ai1PECQTéléchargez votre diplome!
182.1192ROSA DA ROCHA Marco39FRA2:01:592:02:015:47 10.3854senCAMBRAITéléchargez votre diplome!
183.1302FRONVAL Xavier43FRA2:02:002:02:015:47 10.3854ve1CAMBRAITéléchargez votre diplome!
184.1128MICHAUX Didier52BELJTB (JOGGING TE2:01:532:02:115:48 10.3621ve2BESONRIEUXTéléchargez votre diplome!
185.1478HAUBRUGE Sébastien48BEL2:02:062:02:155:48 10.3655ve1LEUZE-EN-HAINAUTTéléchargez votre diplome!
186.1413SEDJER Gregory31FRA2:02:062:02:175:48 10.3555senLEERSTéléchargez votre diplome!
187.1350FWICQUART Gwenaelle35FRA2:02:122:02:205:48 10.3520damSALOMETéléchargez votre diplome!
188.1351WICQUART Thomas39FRA2:02:122:02:205:48 10.3556senSALOMETéléchargez votre diplome!
189.1502FVAN DRIESSCHE Marie37BEL2:02:232:02:285:49 10.3421damVEZONTéléchargez votre diplome!
190.1069FLEROY Sophie34FRAOXYGÈNE SEQUEDI2:02:402:02:405:49 10.3222damSEQUEDINTéléchargez votre diplome!
191.1028FLEROY Julie28FRA2:02:402:02:415:49 10.3223damLAMBERSARTTéléchargez votre diplome!
192.1311DECQ Jean René63FRAJOG'LEERS2:02:412:02:455:50 10.316ve3NECHINTéléchargez votre diplome!
193.1103SEGARD Anthime33BEL2:02:352:02:465:50 10.3157senHELCHINTéléchargez votre diplome!
194.1385DEZITTER Thomas38FRA-2:02:452:02:465:50 10.3158senLEERSTéléchargez votre diplome!
195.1012FFARIA Céleste36FRA2:02:312:02:505:50 10.3124damCROIXTéléchargez votre diplome!
196.1031FCHARTRER Cecile50FRA2:03:012:03:015:50 10.293ai2SAILLY SUR LA LYSTéléchargez votre diplome!
197.1393FDUBUS Valérie36FRAJCL2:03:182:03:285:52 10.2525damLUINGNETéléchargez votre diplome!
198.1217BEYLS Philippe50BELJCL2:03:242:03:345:52 10.2522ve2MOUSCRONTéléchargez votre diplome!
199.1416FMANOURY Fabienne48FRARUN SANTE2:03:312:03:355:52 10.2415ai1LYS LEZ LANNOYTéléchargez votre diplome!
200.1190FDEKOSTER Pauline-Marie34BELJCPLF ESTAIMPUI2:04:082:04:195:54 10.1826damPECQTéléchargez votre diplome!
201.1085VAN DE PUTTE Willy69BEL2:04:262:04:285:54 10.177ve3ESTAIMPUISTéléchargez votre diplome!
202.1359FALTARRIBA Isabelle44FRARUNINBOUSBECQUE2:04:242:04:295:54 10.1716ai1HALLUINTéléchargez votre diplome!
203.1220FCOQU Catherine44BELCHWAPI2:04:312:04:335:55 10.1617ai1KAINTéléchargez votre diplome!
204.1492BATAILLE Gilles40BEL2:04:442:04:505:55 10.1456ve1MARCQ EN BAROEULTéléchargez votre diplome!
205.1281PAYELLEVILLE Antoine41FRA2:04:442:04:505:55 10.1457ve1MARCQ EN BAROEULTéléchargez votre diplome!
206.1250FLESOIN Celine41BELJCPMF2:05:032:05:155:57 10.1118ai1PECQTéléchargez votre diplome!
207.1470FLE CADRE Sandrine45FRA2:05:122:05:255:57 10.1019ai1ESTAIRESTéléchargez votre diplome!
208.1158DERDEYN Quentin38FRA2:05:222:05:265:57 10.0959senLEERS NORDTéléchargez votre diplome!
209.1262SPRIET Sylvain44BEL2:05:182:05:305:57 10.0958ve1ST-LÉGERTéléchargez votre diplome!
210.1194GORCZYCA Nicolas51FRA2:05:352:05:355:58 10.0823ve2NEUVILLE EN FERRAINTéléchargez votre diplome!
211.1052SIX Sebastien43FRA2:05:362:05:365:58 10.0859ve1TOURCOINGTéléchargez votre diplome!
212.1379CATTOR Boris33FRA2:05:542:05:595:59 10.0560senWATTRELOSTéléchargez votre diplome!
213.1243VANDENBOGAERDE Mathieu20FRA2:06:052:06:105:59 10.0461senESTAIMPUISTéléchargez votre diplome!
214.1294OFFROY David42BEL2:05:562:06:105:59 10.0360ve1NÉCHINTéléchargez votre diplome!
215.1218FINDRANEE Marday48BELJCL2:06:152:06:266:00 10.0120ai1MOUSCRONTéléchargez votre diplome!
216.1081DENIS Maxime33BEL2:06:102:06:266:00 10.0162senESTAIMPUISTéléchargez votre diplome!
217.1321FVANSTEENBRUGGE Dominique51BELRCE ESTAIMPUIS2:06:332:06:436:01 9.994ai2ESTAIMBOURGTéléchargez votre diplome!
218.1080MAES Grégory42BEL2:06:432:06:506:01 9.9861ve1TOURNAITéléchargez votre diplome!
219.1305POULET David39BELHC MOUSCRON2:06:402:06:516:01 9.9863senMOUSCRONTéléchargez votre diplome!
220.1288FGREER Émilie35BELA VOS MARQUES P2:06:542:06:586:02 9.9727damMOUSCRONTéléchargez votre diplome!
221.1320THONNARD Michaël43BELRCE ESTAIMPUIS2:06:482:06:596:02 9.9762ve1ESTAIMBOURGTéléchargez votre diplome!
222.1400FSIX Axelle23FRA2:07:042:07:046:02 9.9628damESTAIMPUISTéléchargez votre diplome!
223.1326LANNOY-BRENNET Julien24BEL2:07:052:07:056:02 9.9664senESTAIMPUISTéléchargez votre diplome!
224.1274POPESCU Sebastian37ROU2:06:562:07:146:02 9.9565senSAINT AMAND LES EAUXTéléchargez votre diplome!
225.1235DEKOSTER Philippe58BELJCPLF ESTAIMPUI2:07:142:07:246:03 9.9424ve2ESTAIMBOURGTéléchargez votre diplome!
226.1090FFOUTREYN Sandrine43BELETM2:07:192:07:246:03 9.9421ai1ESTAIMPUISTéléchargez votre diplome!
227.1200DANEL Martin31FRA2:07:272:07:276:03 9.9366senMARCQ-EN-BAROEULTéléchargez votre diplome!
228.1184DELCROIX Luc52BELRUNNING FARMERS2:07:262:07:366:03 9.9225ve2MONT SAINT AUBERTTéléchargez votre diplome!
229.1177DELMARRE Pierre58BELRUNNING FARMERS2:07:282:07:376:03 9.9226ve2TEMPLEUVETéléchargez votre diplome!
230.1266DECRUYENAERE Frédéric42BELFARMER2:07:282:07:386:03 9.9263ve1ESTAIMPUISTéléchargez votre diplome!
231.1147FFRENOY Frederique46BELSANS2:07:302:07:486:04 9.9122ai1HAVINNESTéléchargez votre diplome!
232.1355NENY Timothée34FRA2:07:542:07:546:04 9.9067senLESQUINTéléchargez votre diplome!
233.1386MARECHAL David56FRAJOGLEERS2:08:092:08:146:05 9.8727ve2LEERSTéléchargez votre diplome!
234.1511ALLARD Julien35BEL2:08:352:08:366:06 9.8568senSAINT-LÉGERTéléchargez votre diplome!
235.1060FVERPEUT Justice43BELJCPMF PECQ2:08:312:08:366:06 9.8423ai1PECQTéléchargez votre diplome!
236.1203DELROEUX Grégory45BEL2:08:292:08:396:06 9.8464ve1EVREGNIESTéléchargez votre diplome!
237.1057DINDELEUX Didier59FRA2:08:522:08:586:07 9.8228ve2LEERSTéléchargez votre diplome!
238.1331FRONDEAU Lucie33FRARC ESTAIMPUIS2:08:472:08:586:07 9.8229damLEERS-NORDTéléchargez votre diplome!
239.1035MOUADA Abdelakhim50FRART2:08:592:09:146:08 9.8029ve2NEUVILLE-EN-FERRAINTéléchargez votre diplome!
240.1168FWULLENS Charlotte47BELA VOS MARQUES P2:09:232:09:276:09 9.7824ai1MOUSCRONTéléchargez votre diplome!
241.1201FRHOGGHE Laetitia42BELA VOS MARQUES P2:09:282:09:326:09 9.7725ai1MOUSCRONTéléchargez votre diplome!
242.1136GOUSSEAU Joachim47BELJCPMF2:09:232:09:386:09 9.7765ve1ESTAIMBOURGTéléchargez votre diplome!
243.1378FFERNANDES Suzie50FRAMOUSCRON MARATH2:09:542:09:546:10 9.755ai2WATTRELOSTéléchargez votre diplome!
244.1126FDELNATTE Charlotte30BEL2:09:442:09:546:10 9.7530damDOTTIGNIESTéléchargez votre diplome!
245.1228RYCKEBUSCH Christophe46FRAMOUSCRON MARATH2:09:552:09:556:10 9.7566ve1MOUSCRONTéléchargez votre diplome!
246.1221MIGNOT Clément31FRA2:09:592:09:596:10 9.7469senLINSELLESTéléchargez votre diplome!
247.1089DIERICK Christian57BELJCPMF PECQ2:10:022:10:076:10 9.7330ve2HÉRINNESTéléchargez votre diplome!
248.1096D'HAENE Christopher28BELN/A2:09:562:10:156:11 9.7270senHACQUEGNIESTéléchargez votre diplome!
249.1417FMEURILLON Cassandre29FRA2:10:222:10:226:11 9.7131damLINSELLESTéléchargez votre diplome!
250.1316FDEPLECHIN AlineBEL2:10:202:10:276:11 9.7111xxxMOUSCRONTéléchargez votre diplome!
251.1070D'ERMILIO Fred35ITA2:10:112:10:296:12 9.7071senFLENUTéléchargez votre diplome!
252.1241FKLEINPOORT Cécile37FRA2:10:312:10:316:12 9.7032damESTAIMPUISTéléchargez votre diplome!
253.1056FDOS SANTOS AMARAL Laetitia38FRA#TEAMRANEF2:10:312:10:316:12 9.7033damNEUVILLE EN FERRAINTéléchargez votre diplome!
254.1240CARTON Olivier48FRA2:10:312:10:316:12 9.7067ve1ESTAIMPUISTéléchargez votre diplome!
255.1242FSALLEZ Marine33FRA2:10:312:10:316:12 9.7034damESTAIMPUISTéléchargez votre diplome!
256.1121FFERVAILLE Fabienne56BELKAIN BRUYERE2:10:302:10:376:12 9.696ai2KAINTéléchargez votre diplome!
257.1091FLEBLANC Carine59BELKAIN BRUYÈRE2:10:302:10:386:12 9.697ai2ESTAIMPUISTéléchargez votre diplome!
258.1369DESABLIN Nicolas34BEL2:10:312:10:476:12 9.6872senRUMILLIESTéléchargez votre diplome!
259.1111VANDENDORPE James43BEL2:10:352:10:506:13 9.6868ve1HERINNESTéléchargez votre diplome!
260.1422GOMBAUD Nicolas37FRA2:10:422:10:536:13 9.6773senTOURCOINGTéléchargez votre diplome!
261.1122FLEMOINE Christelle54BELKAIN BRUYERE2:11:232:11:316:14 9.638ai2KAINTéléchargez votre diplome!
262.1076DILLIES Gaetan27BEL2:11:392:11:396:15 9.6274senMOUSCRONTéléchargez votre diplome!
263.1166FPETIT Kathy47BELJC ZWALM2:12:142:12:156:17 9.5726ai1OUDENAARDETéléchargez votre diplome!
264.1244FFOUQUET Christelle40FRALES GRENADINES2:12:242:12:376:18 9.5527ai1LEERSTéléchargez votre diplome!
265.1034FCAVROT Angélique31FRA2:12:482:12:486:18 9.5335damMOUVAUXTéléchargez votre diplome!
266.1335CASTEL Laurent51BELETM2:12:542:12:586:19 9.5231ve2MOUSCRONTéléchargez votre diplome!
267.1396FMAHUT Claire34FRA2:12:482:13:036:19 9.5236damEVREGNIESTéléchargez votre diplome!
268.1092FDUBUS Nancy44BEL2:13:052:13:106:19 9.5128ai1RUMILLIESTéléchargez votre diplome!
269.1084FLEROY Audrey39BEL2:13:212:13:306:20 9.4837damESTAIMPUISTéléchargez votre diplome!
270.1319CLEENWERCK Stéphane55BELRCE ESTAIMPUIS2:13:282:13:376:20 9.4832ve2ESTAIMBOURGTéléchargez votre diplome!
271.1407FGARUCCIO CarolineBELVELAINES2:13:272:13:376:20 9.4812xxxREKKEMTéléchargez votre diplome!
272.1512FKIZIKA Monique60BEL2:13:382:13:396:21 9.471ai3MOUSCRONTéléchargez votre diplome!
273.1358DELVAL Frédéric46BEL2:13:372:13:406:21 9.4769ve1BONSECOURSTéléchargez votre diplome!
274.1149PLUQUET Marc63BELFARMERS CLUB2:14:222:14:336:23 9.418ve3ESTAIMBOURGTéléchargez votre diplome!
275.1048FMANTEL Dominique55FRA2:14:372:14:556:24 9.389ai2SAINGHIN EN WEPPESTéléchargez votre diplome!
276.1189FLIÉNART AmandineBELMC RUNNING2:15:022:15:046:25 9.3713xxxBECLERSTéléchargez votre diplome!
277.1115HOUDART Stephane45BELRUNNING CLUB MO2:14:592:15:056:25 9.3770ve1MONSTéléchargez votre diplome!
278.1021MAGRÉ Gauthier36FRA2:15:032:15:056:25 9.3775senQUINCY SOUS SENARTTéléchargez votre diplome!
279.1418FPHOUNSOUK Khairani34FRA2:14:562:15:076:25 9.3738damTOURCOINGTéléchargez votre diplome!
280.1119FBAILLON Charlotte33FRA2:14:582:15:136:25 9.3639damNÉCHINTéléchargez votre diplome!
281.1392DOULIEZ Fabrice54FRA2:15:072:15:166:25 9.3633ve2VIEUX-CONDÉTéléchargez votre diplome!
282.1391FDANIAUX Nathalie50BEL2:15:082:15:176:25 9.3610ai2VIEUX-CONDÉTéléchargez votre diplome!
283.1106COUPLET Maxence17BEL2:15:012:15:186:25 9.364espHERSEAUXTéléchargez votre diplome!
284.1198DECRAENE Jimmy43BELJCL2:15:092:15:256:26 9.3571ve1MOUSCRONTéléchargez votre diplome!
285.1264FSANSONE Clémence31FRAAMOURETTE2:15:292:15:296:26 9.3540damLINSELLESTéléchargez votre diplome!
286.1113DEPAUW Aurélien38BEL2:15:292:15:396:26 9.3376senHERINNES-LEZ-PECQTéléchargez votre diplome!
287.1112FBOUCART Audeline29BEL2:15:302:15:406:26 9.3341damHERINNES-LEZ-PECQTéléchargez votre diplome!
288.1368FERNANDES José56PRTMOUSCRON MARATH2:15:432:15:436:26 9.3334ve2WATTRELOSTéléchargez votre diplome!
289.1049PIETERAERENS Benoît41BEL2:16:002:16:006:27 9.3172ve1HAUBOURDINTéléchargez votre diplome!
290.1164BATAILLE Mathieu35BEL2:15:572:16:046:27 9.3077senBARRYTéléchargez votre diplome!
291.1505NR 1505 BEL2:15:582:16:046:27 9.3014xxxTéléchargez votre diplome!
292.1007FDOUCHY CLINQUART Claire38FRA2:16:042:16:136:28 9.2942damLIBERCOURTTéléchargez votre diplome!
293.1298WINCKELS Richard33FRAW2:16:132:16:136:28 9.2978senESTAIMBOURGTéléchargez votre diplome!
294.1345FMARION Guilluy27FRA2:15:542:16:146:28 9.2943damTOURNAITéléchargez votre diplome!
295.1163FDANNELY Aurélie34FRALOUVROIL REMISE2:16:072:16:296:29 9.2844damHAUTMONTTéléchargez votre diplome!
296.1488DECROIX Christophe47FRALEERS VOLLEY2:16:292:16:326:29 9.2773ve1LUINGNETéléchargez votre diplome!
297.1365RICHELIN Patrick52BELKAIN BRUYERES2:16:152:16:336:29 9.2735ve2ESTAIMPUISTéléchargez votre diplome!
298.1279PANIER Didier47BEL2:16:262:16:406:29 9.2674ve1MOUSCRONTéléchargez votre diplome!
299.1301DEBEUNNE François48FRA2:16:442:16:466:29 9.2675ve1BAILLEULTéléchargez votre diplome!
300.1064CASTAGNE Vincent49FRA2:16:472:16:486:29 9.2576ve1MARCQ EN BAROEULTéléchargez votre diplome!
301.1336FPOLLIN Katty50BELETM2:16:582:17:036:30 9.2411ai2MOUSCRONTéléchargez votre diplome!
302.1120SOSA LUQUE José-Antonio35ESP2:17:112:17:256:31 9.2179senNÉCHINTéléchargez votre diplome!
303.1360FCOLLIE Christine51BELON COURT À PECQ2:17:182:17:266:31 9.2112ai2HERINNESTéléchargez votre diplome!
304.1047DECROIX Bruno34FRA2:17:302:17:366:32 9.2080senLYS LEZ LANNOYTéléchargez votre diplome!
305.1227FLEMAIRE Perrine29BELRC ESTAIMPUIS2:17:422:17:546:33 9.1845damESTAIMPUISTéléchargez votre diplome!
306.1267FLEROY Aude41BELRCE2:17:462:17:556:33 9.1829ai1ESTAIMPUISTéléchargez votre diplome!
307.1023FDEMANGHON Elodie36FRA2:17:462:17:576:33 9.1846damLEERSTéléchargez votre diplome!
308.1025FLAMIAUX Lise37FRA2:17:462:17:576:33 9.1847damTOURCOINGTéléchargez votre diplome!
309.1176FBAYART Christine58BELRUNNING FARMERS2:18:122:18:236:34 9.1513ai2TEMPLEUVETéléchargez votre diplome!
310.1026FDESTRIBATS Lucile32FRA2:18:312:18:446:35 9.1348damARRASTéléchargez votre diplome!
311.1116FDELMEULLE CecileFRA2:18:372:18:496:35 9.1215xxxLESQUINTéléchargez votre diplome!
312.1377KOVACS Daniel11HUN2:18:482:18:576:36 9.115espIXELLESTéléchargez votre diplome!
313.1157FSZEPESSY Edit45HUN2:18:482:18:576:36 9.1130ai1IXELLESTéléchargez votre diplome!
314.1343VAN WAEYENBERGHE Laurent48BELCANI SPORT2:18:562:19:006:36 9.1177ve1BEAUVECHAINTéléchargez votre diplome!
315.1317FGEERTS Jennifere32BELCANI-SPORT HAIN2:18:582:19:016:36 9.1149damKAINTéléchargez votre diplome!
316.1054CHOQUET Grégory50FRA2:18:512:19:076:36 9.1036ve2WATTRELOSTéléchargez votre diplome!
317.1055FCHOQUET Karine42FRA2:18:512:19:086:36 9.1031ai1WATTRELOSTéléchargez votre diplome!
318.1342FMALFAIT Ingrid41BEL2:18:592:19:116:36 9.1032ai1LA GLANERIETéléchargez votre diplome!
319.1050FHENNION Camille23FRA2:19:042:19:186:37 9.0950damCYSOINGTéléchargez votre diplome!
320.1191FNAUD Justine23FRA2:19:052:19:186:37 9.0951damCAMPHIN EN PEVELETéléchargez votre diplome!
321.1275BEUGNET Romain31FRA2:19:322:19:356:37 9.0781senTOUFFLERSTéléchargez votre diplome!
322.1338MARTIN Félix27BEL2:19:342:19:456:38 9.0682senTOURNAITéléchargez votre diplome!
323.1295FCALON Lucie33FRA2:19:592:20:036:39 9.0452damBOULOGNE SUR MERTéléchargez votre diplome!
324.1346FHOCQ Muriel45BELCOACH RUNNING2:20:032:20:136:39 9.0333ai1TAINTIGNIESTéléchargez votre diplome!
325.1043FRODRIGUES Cindy37FRA2:20:052:20:156:39 9.0353damESCAUDAINTéléchargez votre diplome!
326.1105FNEIRINCK Manon22BEL2:20:242:20:406:40 9.0054damHERSEAUXTéléchargez votre diplome!
327.1248MARQUEZ Andrés52ESP2:20:252:20:446:41 9.0037ve2MOUSCRONTéléchargez votre diplome!
328.1037FGIKIERE Delphine40FRA2:20:362:20:486:41 8.9934ai1MOUSCRONTéléchargez votre diplome!
329.1087VANDERSTEENE David39BELJCL LUIGNE2:20:562:21:126:42 8.9783senMOUSCRONTéléchargez votre diplome!
330.1075FVILAIN Patricia50BELLES TOPS BICHES2:21:252:21:416:43 8.9414ai2COLFONTAINETéléchargez votre diplome!
331.1204FHADDADI Ludivine35FRA2:21:342:21:496:44 8.9355damEVREGNIESTéléchargez votre diplome!
332.1364FMICHALSKI Laetitia40FRA2:21:502:21:526:44 8.9235ai1FOUQUIÈRES-LÈS-LENSTéléchargez votre diplome!
333.1117RODZIELSKI Félix51FRA2:21:502:21:526:44 8.9238ve2HARNESTéléchargez votre diplome!
334.1039SAURAT Bruno39FRA2:21:542:21:546:44 8.9284senLILLETéléchargez votre diplome!
335.1256DELECOUR Stéphane37FRA2:21:512:22:066:45 8.9185senEVREGNIESTéléchargez votre diplome!
336.1254FDELECOUR Celine35FRAJCPMF ESTAIMPUI2:21:522:22:076:45 8.9156damEVREGNIESTéléchargez votre diplome!
337.1010FSEDJER Caroline28FRALES GRENADINE2:22:162:22:296:46 8.8957damNECHINTéléchargez votre diplome!
338.1102FBERNARD Roxane32BEL2:22:182:22:296:46 8.8958damHELCHINTéléchargez votre diplome!
339.1014VANDERSCHOOTEN Dominique48FRAECLA LANDAS2:22:172:22:346:46 8.8878ve1AIXTéléchargez votre diplome!
340.1040VAN MELLAERT Michel60FRA2:22:172:22:346:46 8.889ve3WATTIGNIESTéléchargez votre diplome!
341.1042FCARLIER Gaelle34FRA2:22:292:22:426:46 8.8759damWILLEMSTéléchargez votre diplome!
342.1272FFORET Anne-Charlotte34FRA2:22:282:22:426:46 8.8760damLYS LEZ LANNOYTéléchargez votre diplome!
343.1219WALRAET Frederic45BELADDM OGY2:23:202:23:226:48 8.8379ve1DERGNEAUTéléchargez votre diplome!
344.1389TEINIELLE Alexis34FRA2:23:162:23:266:48 8.8386senHALLUINTéléchargez votre diplome!
345.1110ARS Eddy59BEL2:23:152:23:326:49 8.8239ve2REBAIXTéléchargez votre diplome!
346.1398FAUVILLE Pierre42BEL2:23:542:24:086:50 8.7880ve1GRANDMETZTéléchargez votre diplome!
347.1318FPLÉ Kathy48FRA2:23:562:24:146:51 8.7836ai1WATTRELOSTéléchargez votre diplome!
348.1238VAN MEENEN Damien29BEL2:24:392:24:556:53 8.7487senESTAIMBOURGTéléchargez votre diplome!
349.1394FLAMONT Adeline35BEL2:25:012:25:166:54 8.7261damGRANDMETZTéléchargez votre diplome!
350.1419FBARCELLONA Mélissa32BELTOP BICHE2:25:072:25:226:54 8.7162damBLAREGNIESTéléchargez votre diplome!
351.1485COQUELET Joffrey41BEL2:25:062:25:226:54 8.7181ve1BOUSSOITTéléchargez votre diplome!
352.1161MERCIER Thibaut46FRA2:25:422:25:426:55 8.6982ve1WATTRELOSTéléchargez votre diplome!
353.1498FVELLE Violaine27BEL2:25:582:26:036:56 8.6763damNECHINTéléchargez votre diplome!
354.1129RENARD Pascal53BELJCL2:25:592:26:146:56 8.6640ve2SAINT LEGERTéléchargez votre diplome!
355.1415VAN DE PUTTE Dénys19FRA2:27:202:27:327:00 8.5888senWATTRELOSTéléchargez votre diplome!
356.1423FHEYMANS Agnes47BELTOP BICHE2:27:402:27:567:01 8.5637ai1QUAREGNONTéléchargez votre diplome!
357.1273VERDY Romain24BELRUN 4 FUN2:27:472:28:007:01 8.5589senBLÉHARIESTéléchargez votre diplome!
358.1497KINET Jean Marie54FRAFAW2:28:052:28:097:02 8.5541ve2LYS LEZ LANNOYTéléchargez votre diplome!
359.1041FCALOONE Marion23FRA2:28:122:28:177:02 8.5464damLEERSTéléchargez votre diplome!
360.1154VERHAEGHE Nico52BELRTL LAUWE2:28:072:28:177:02 8.5442ve2WEVELGEMTéléchargez votre diplome!
361.1033PROFETTO Michelangelo53FRARC ESTAIMPUIS2:28:092:28:217:02 8.5343ve2ESTAIMPUISTéléchargez votre diplome!
362.1107FSEYS Delphine48BELJCPMF PECQ2:28:132:28:267:03 8.5338ai1HERSEAUXTéléchargez votre diplome!
363.1125FHOCEDEZ Pascale47BELJE COURS POUR M2:28:132:28:267:03 8.5339ai1ESTAIMPUISTéléchargez votre diplome!
364.1167FMEERSSEMAN Caroline39BELJCL2:28:262:28:387:03 8.5265damHERSEAUXTéléchargez votre diplome!
365.1211FDEMOORE ThierryFRAJ LUINGNE2:28:272:28:397:03 8.5216xxxEVREGNIESTéléchargez votre diplome!
366.1083FDROULEZ Stephanie50BELJCPMF PECQ2:28:452:28:527:04 8.5015ai2HERINNESTéléchargez votre diplome!
367.1114FCOLLIE Sabine47BELJCPMF2:28:452:28:527:04 8.5040ai1HERINNESTéléchargez votre diplome!
368.1376POLLART John41BEL2:28:582:29:137:05 8.4883ve1SIRAULTTéléchargez votre diplome!
369.1239LAVALARD Steeve35FRAILÉVIA2:28:582:29:177:05 8.4890senTOURCOINGTéléchargez votre diplome!
370.1071FCOURTEL JEAN Anne-Claude38FRA2:29:582:30:187:08 8.4266damCHAMPIGNY SUR MARNETéléchargez votre diplome!
371.1515MALTERRE Gilles22BEL2:31:162:31:337:11 8.3591senANNOEULLINTéléchargez votre diplome!
372.1258FDUPRET Geneviève45BELJCPMF PECQ2:32:282:32:347:14 8.3041ai1PECQTéléchargez votre diplome!
373.1062FWALLEMACQ Bérengère49BELZACATAC PECQ2:32:272:32:357:14 8.3042ai1KAINTéléchargez votre diplome!
374.1259LIBBRECHT Laurent44BELJCPMF PECQ2:32:332:32:407:15 8.2984ve1PECQ (BELGIQUE)Téléchargez votre diplome!
375.1276NORTIER David47BELSPORT EVVASION2:33:022:33:147:16 8.2685ve1FROYENNESTéléchargez votre diplome!
376.1078FLEMAN Inge46BELRUN 4 FUN2:33:122:33:267:17 8.2543ai1FRASNES-LEZ-BUISSENALTéléchargez votre diplome!
377.1234FSYLVETTE Lenoir57FRARUN IN BOUSBECQ2:33:162:33:307:17 8.2516ai2BOUSBECQUETéléchargez votre diplome!
378.1074FVANMULLEN Clemence32FRA2:33:512:34:067:19 8.2267damMARCQ EN BAROEULTéléchargez votre diplome!
379.1196FHENNEBAUT Anne-Sophie32FRA2:33:522:34:067:19 8.2268damNÉCHINTéléchargez votre diplome!
380.1183FBERNARD LucieBEL2:34:302:34:457:21 8.1817xxxESTAIMBOURGTéléchargez votre diplome!
381.1123FGORRIQUER Cécile38FRAJCF ESTAIMPUIS2:34:302:34:457:21 8.1869damLEERS NORDTéléchargez votre diplome!
382.1002FHUYGHE VERRIELE Veronique38FRA2:34:502:35:037:21 8.1770damVILLENEUVE D ASCQTéléchargez votre diplome!
383.1268FDUMETZ Annabelle43FRA2:35:182:35:277:23 8.1444ai1FACHES THUMESNILTéléchargez votre diplome!
384.1169FOURNIER Pierre33FRA2:35:362:35:407:23 8.1392senCAMBRAITéléchargez votre diplome!
385.1004FLAMBRICKX Amandine34BELJCPMF ESTAIMPUI2:35:312:35:477:23 8.1371damLEERS NORDTéléchargez votre diplome!
386.1100FDUMONT Virginie35BELPOPUELLES DREAM2:35:342:35:477:23 8.1372damANVAINGTéléchargez votre diplome!
387.1137FFOURDIN Stéphanie43BELRUN FOR FUN2:35:352:35:497:24 8.1345ai1OEUDEGHIENTéléchargez votre diplome!
388.1181LEPER Arnaud33FRA2:36:552:37:147:28 8.0593senESTAIMPUISTéléchargez votre diplome!
389.1180HER AnthonyBEL2:36:572:37:157:28 8.0518xxxESTAIMBOURGTéléchargez votre diplome!
390.1330FWIBAUT Isabelle27BEL2:38:082:38:207:31 8.0073damHAVINNESTéléchargez votre diplome!
391.1388FPERIES Ingrid53FRA2:38:332:38:387:32 7.9817ai2LEERSTéléchargez votre diplome!
392.1003FBONNIER Celine36FRAJCPMF ESTAIMPUI2:38:482:39:037:33 7.9674damLEERS NORDTéléchargez votre diplome!
393.1130PARCINSKI Eric60FRA2:38:522:39:067:33 7.9610ve3HERSEAUXTéléchargez votre diplome!
394.1029FLEPEZ Brigitte56FRA2:38:572:39:117:33 7.9518ai2POIX DU NORDTéléchargez votre diplome!
395.1146FVINCINAUX Caroline30BEL2:38:592:39:197:34 7.9575damHUYTéléchargez votre diplome!
396.1247DURIEZ Pierre37FRA2:39:402:40:007:35 7.9194senMOUSCRONTéléchargez votre diplome!
397.1236FHAUDEZ Maryline59BELJCPLF ESTAIMPUI2:43:342:43:507:46 7.7319ai2ESTAIMBOURGTéléchargez votre diplome!
398.1095FGREMEAUX Marie-Lise28BEL2:44:372:44:567:50 7.6876damFROYENNESTéléchargez votre diplome!
399.1094DUCHATELET Xavier29BEL2:44:372:44:577:50 7.6895senFROYENNESTéléchargez votre diplome!
400.1341PLUQUET Eddy48BEL2:46:532:47:117:56 7.5786ve1TOURNAITéléchargez votre diplome!
401.1269DEBAYE Nicolas33BEL2:46:552:47:127:56 7.5796senHAUTRAGETéléchargez votre diplome!
402.1340FDEBAYE Mélanie39BEL2:46:562:47:127:56 7.5777damTOURNAITéléchargez votre diplome!
403.1327FLEGUAY Marianick44FRA2:55:272:55:328:20 7.2146ai1AUDRUICQTéléchargez votre diplome!
404.1173FTHIRARD Caroline46FRA2:55:272:55:328:20 7.2147ai1MOUSCRONTéléchargez votre diplome!
405.1285FROUX Florence41FRAAC OUTREAU2:55:272:55:328:20 7.2148ai1OUTREAUTéléchargez votre diplome!
406.1357FDEBAISIEUX Fabienne55BELJCPMF ESTAIMPUI2:57:402:57:558:26 7.1220ai2TEMPLEUVETéléchargez votre diplome!
407.1148FHOUFFLAIN Martine65BELJCF ESTAIMPUIS3:00:423:00:588:35 7.002ai3ESTAIMBOURGTéléchargez votre diplome!
408.1252FCHAMPION Caroline33FRA3:07:563:08:138:56 6.7378damEVREGNIESTéléchargez votre diplome!
409.1251FVINIAL Sandrine41FRA3:07:573:08:138:56 6.7349ai1EVREGNIESTéléchargez votre diplome!
410.1263FTARIN LaetitiaBELJCPMF PECQ3:15:473:15:549:18 6.4619xxxSAINT LÉGERTéléchargez votre diplome!
411.1430DETREMMERIE Marc60BEL3:29:453:29:459:57 6.0411ve3ESTAIMPUISTéléchargez votre diplome!
412.1516LAEBENS François31BELRC ESTAIMPUIS4:05:094:05:1711:38 5.1697senESTAIMPUISTéléchargez votre diplome!
DNF1260RAMOS FERNANDES Roberto26PRTsenMOUSCRON
DNF: did not finish; DSQ: disqualified; Speed in km/h
Page: [1]